Time;durP1;ratioP1;P1;durP2;ratioP2;P2;SDS_P1;SDS_P2;PMS_P1;PMS_P2;Temp;Humidity;BMP_temperature;BMP_pressure;BME280_temperature;BME280_humidity;BME280_pressure;Samples;Min_cycle;Max_cycle;Signal;HPM_P1;HPM_P2
2023/07/31 00:00:11;;;;;;;4.50;2.70;;;;;;;;;;5051512;28;20423;-62
2023/07/31 00:02:36;;;;;;;3.28;2.88;;;;;;;;;;5053230;28;20032;-62
2023/07/31 00:05:01;;;;;;;6.15;2.53;;;;;;;;;;5059681;28;20008;-61
2023/07/31 00:07:27;;;;;;;2.58;2.38;;;;;;;;;;5071796;28;20041;-61
2023/07/31 00:09:53;;;;;;;7.68;3.30;;;;;;;;;;5072905;28;20086;-62
2023/07/31 00:12:18;;;;;;;3.50;3.20;;;;;;;;;;5070294;28;20032;-62
2023/07/31 00:14:43;;;;;;;3.30;3.00;;;;;;;;;;5059557;28;20028;-61
2023/07/31 00:17:08;;;;;;;5.03;3.85;;;;;;;;;;5051281;28;20831;-62
2023/07/31 00:19:34;;;;;;;4.22;3.42;;;;;;;;;;5059032;28;20035;-62
2023/07/31 00:21:59;;;;;;;3.33;3.00;;;;;;;;;;5071520;28;20043;-62
2023/07/31 00:24:24;;;;;;;3.47;3.20;;;;;;;;;;5072580;28;20438;-62
2023/07/31 00:26:49;;;;;;;2.63;2.43;;;;;;;;;;5063800;28;20037;-65
2023/07/31 00:29:14;;;;;;;3.28;2.92;;;;;;;;;;5052934;28;20445;-62
2023/07/31 00:31:40;;;;;;;3.47;3.13;;;;;;;;;;5063907;28;20063;-62
2023/07/31 00:34:05;;;;;;;3.70;3.40;;;;;;;;;;5043480;28;20017;-62
2023/07/31 00:36:30;;;;;;;3.08;2.75;;;;;;;;;;5037074;28;20037;-62
2023/07/31 00:38:55;;;;;;;4.03;3.50;;;;;;;;;;5067851;28;20024;-61
2023/07/31 00:41:20;;;;;;;3.97;3.57;;;;;;;;;;5051020;28;20400;-61
2023/07/31 00:43:46;;;;;;;4.03;3.40;;;;;;;;;;5063163;28;20097;-61
2023/07/31 00:46:11;;;;;;;3.92;3.00;;;;;;;;;;5070716;28;20043;-62
2023/07/31 00:48:37;;;;;;;3.47;3.17;;;;;;;;;;5072675;28;20025;-62
2023/07/31 00:51:02;;;;;;;3.03;2.75;;;;;;;;;;5069285;28;20024;-62
2023/07/31 00:53:27;;;;;;;2.80;2.60;;;;;;;;;;5071879;28;20024;-62
2023/07/31 00:55:53;;;;;;;3.30;3.00;;;;;;;;;;5070596;28;20051;-62
2023/07/31 00:58:18;;;;;;;6.10;4.60;;;;;;;;;;5071903;28;20096;-62
2023/07/31 01:00:43;;;;;;;3.33;2.63;;;;;;;;;;5071806;28;20074;-62
2023/07/31 01:03:09;;;;;;;5.45;3.35;;;;;;;;;;5070749;28;20033;-62
2023/07/31 01:05:40;;;;;;;4.00;3.53;;;;;;;;;;5071707;28;20020;-62
2023/07/31 01:08:11;;;;;;;3.03;2.22;;;;;;;;;;5070354;28;20559;-63
2023/07/31 01:10:52;;;;;;;3.00;2.28;;;;;;;;;;5071777;28;20091;-63
2023/07/31 01:13:17;;;;;;;5.95;2.97;;;;;;;;;;5070312;28;20526;-63
2023/07/31 01:15:42;;;;;;;3.07;2.67;;;;;;;;;;5071590;28;20044;-63
2023/07/31 01:18:08;;;;;;;2.27;2.10;;;;;;;;;;5070364;28;20454;-63
2023/07/31 01:20:33;;;;;;;2.57;2.37;;;;;;;;;;5071036;28;20073;-63
2023/07/31 01:23:01;;;;;;;7.03;2.40;;;;;;;;;;5068847;28;20037;-64
2023/07/31 01:25:44;;;;;;;1.58;1.48;;;;;;;;;;5071369;28;20026;-63
2023/07/31 01:28:13;;;;;;;2.05;1.88;;;;;;;;;;5069887;28;20656;-64
2023/07/31 01:30:41;;;;;;;5.05;2.28;;;;;;;;;;5071112;28;20078;-63
2023/07/31 01:33:07;;;;;;;4.05;3.05;;;;;;;;;;5070109;28;20037;-63
2023/07/31 01:35:36;;;;;;;5.80;1.98;;;;;;;;;;5070088;28;20044;-63
2023/07/31 01:38:02;;;;;;;1.85;1.70;;;;;;;;;;5069265;28;20044;-63
2023/07/31 01:40:27;;;;;;;6.13;1.80;;;;;;;;;;5071264;28;20654;-63
2023/07/31 01:42:52;;;;;;;2.38;2.17;;;;;;;;;;5069950;28;20129;-63
2023/07/31 01:45:17;;;;;;;5.00;3.00;;;;;;;;;;5071060;28;20095;-71
2023/07/31 01:47:42;;;;;;;2.28;1.83;;;;;;;;;;5070205;28;20453;-63
2023/07/31 01:50:08;;;;;;;4.93;3.58;;;;;;;;;;5066413;28;20021;-63
2023/07/31 01:52:33;;;;;;;6.03;4.18;;;;;;;;;;5049246;28;20041;-63
2023/07/31 01:54:58;;;;;;;7.83;3.97;;;;;;;;;;5058275;28;20029;-63
2023/07/31 01:57:23;;;;;;;11.57;7.23;;;;;;;;;;5069373;28;20067;-62
2023/07/31 01:59:48;;;;;;;11.15;7.93;;;;;;;;;;5069735;28;20035;-62
2023/07/31 02:02:13;;;;;;;15.30;8.90;;;;;;;;;;5069399;28;20036;-63
2023/07/31 02:04:40;;;;;;;22.73;11.15;;;;;;;;;;5057810;28;20056;-63
2023/07/31 02:07:05;;;;;;;27.20;12.95;;;;;;;;;;5059734;28;20111;-63
2023/07/31 02:09:31;;;;;;;31.20;12.80;;;;;;;;;;5060099;28;20109;-63
2023/07/31 02:11:56;;;;;;;34.83;13.30;;;;;;;;;;5042194;28;20047;-63
2023/07/31 02:14:21;;;;;;;38.40;12.82;;;;;;;;;;5070548;28;20027;-63
2023/07/31 02:16:46;;;;;;;29.90;14.63;;;;;;;;;;5069519;28;20520;-64
2023/07/31 02:19:11;;;;;;;39.50;16.13;;;;;;;;;;5070753;28;20461;-63
2023/07/31 02:21:36;;;;;;;32.35;14.75;;;;;;;;;;5068661;28;20478;-63
2023/07/31 02:24:02;;;;;;;39.58;14.82;;;;;;;;;;5070761;28;20526;-63
2023/07/31 02:26:27;;;;;;;48.00;17.77;;;;;;;;;;5069342;28;20086;-63
2023/07/31 02:28:52;;;;;;;42.17;18.97;;;;;;;;;;5070636;28;20498;-64
2023/07/31 02:31:17;;;;;;;42.08;17.85;;;;;;;;;;5068886;28;20122;-62
2023/07/31 02:33:42;;;;;;;41.38;17.77;;;;;;;;;;5071001;28;20027;-63
2023/07/31 02:36:07;;;;;;;50.22;22.02;;;;;;;;;;5068507;28;20538;-62
2023/07/31 02:38:32;;;;;;;39.77;17.07;;;;;;;;;;5069447;28;20023;-63
2023/07/31 02:40:58;;;;;;;51.50;20.95;;;;;;;;;;5062659;28;20532;-62
2023/07/31 02:43:23;;;;;;;49.10;24.03;;;;;;;;;;5070245;28;20311;-62
2023/07/31 02:45:52;;;;;;;57.67;22.42;;;;;;;;;;5051576;28;20053;-61
2023/07/31 02:48:17;;;;;;;46.53;19.52;;;;;;;;;;5070554;28;20020;-62
2023/07/31 02:50:42;;;;;;;45.45;20.33;;;;;;;;;;5070364;28;20028;-71
2023/07/31 02:53:07;;;;;;;44.08;17.92;;;;;;;;;;5068962;28;20113;-62
2023/07/31 02:55:32;;;;;;;51.50;20.63;;;;;;;;;;5070241;28;20073;-63
2023/07/31 02:57:58;;;;;;;54.27;20.53;;;;;;;;;;5056685;28;20048;-62
2023/07/31 03:00:23;;;;;;;51.40;22.20;;;;;;;;;;5050365;28;20025;-62
2023/07/31 03:02:49;;;;;;;46.40;20.97;;;;;;;;;;5053876;28;20041;-63
2023/07/31 03:05:14;;;;;;;46.58;21.58;;;;;;;;;;5029930;28;20021;-62
2023/07/31 03:07:39;;;;;;;41.53;17.30;;;;;;;;;;5044332;28;20041;-62
2023/07/31 03:10:05;;;;;;;42.40;19.08;;;;;;;;;;5066673;28;20013;-62
2023/07/31 03:12:30;;;;;;;42.25;17.23;;;;;;;;;;5067529;28;20499;-62
2023/07/31 03:14:55;;;;;;;42.63;18.88;;;;;;;;;;5069753;28;20100;-62
2023/07/31 03:17:20;;;;;;;37.83;17.03;;;;;;;;;;5068596;28;20036;-63
2023/07/31 03:19:45;;;;;;;37.33;18.05;;;;;;;;;;5070509;28;20020;-63
2023/07/31 03:22:11;;;;;;;38.70;15.67;;;;;;;;;;5067915;28;20033;-63
2023/07/31 03:24:36;;;;;;;30.63;15.10;;;;;;;;;;5072860;28;20426;-63
2023/07/31 03:27:01;;;;;;;36.10;16.07;;;;;;;;;;5072734;28;20040;-63
2023/07/31 03:29:26;;;;;;;49.33;18.73;;;;;;;;;;5065360;28;20017;-63
2023/07/31 03:31:52;;;;;;;38.53;17.20;;;;;;;;;;5061461;28;20047;-63
2023/07/31 03:34:17;;;;;;;35.35;17.05;;;;;;;;;;5073929;28;20104;-63
2023/07/31 03:36:42;;;;;;;35.33;17.27;;;;;;;;;;5071814;28;20086;-62
2023/07/31 03:39:07;;;;;;;45.80;15.97;;;;;;;;;;5073300;28;20861;-61
2023/07/31 03:41:33;;;;;;;46.67;17.67;;;;;;;;;;5072342;28;20067;-62
2023/07/31 03:43:58;;;;;;;29.88;14.85;;;;;;;;;;5072167;28;20066;-62
2023/07/31 03:46:24;;;;;;;30.07;16.63;;;;;;;;;;5052382;28;20846;-62
2023/07/31 03:48:49;;;;;;;31.40;15.35;;;;;;;;;;5073828;28;20433;-62
2023/07/31 03:51:14;;;;;;;31.53;15.93;;;;;;;;;;5063293;28;20032;-62
2023/07/31 03:53:39;;;;;;;39.92;17.85;;;;;;;;;;5073677;28;20016;-62
2023/07/31 03:56:04;;;;;;;46.17;16.13;;;;;;;;;;5071856;28;20044;-61
2023/07/31 03:58:30;;;;;;;28.80;16.13;;;;;;;;;;5073047;28;20074;-62
2023/07/31 04:00:55;;;;;;;35.47;17.17;;;;;;;;;;5071870;28;20021;-62
2023/07/31 04:03:20;;;;;;;37.80;18.17;;;;;;;;;;5033477;28;20033;-63
2023/07/31 04:05:45;;;;;;;33.80;16.47;;;;;;;;;;5033189;28;20071;-62
2023/07/31 04:08:10;;;;;;;35.72;16.50;;;;;;;;;;5070974;28;20813;-62
2023/07/31 04:10:35;;;;;;;24.13;12.88;;;;;;;;;;5073510;28;20109;-62
2023/07/31 04:13:01;;;;;;;28.60;15.55;;;;;;;;;;5071114;28;20044;-62
2023/07/31 04:15:26;;;;;;;45.63;15.67;;;;;;;;;;5072500;28;20051;-62
2023/07/31 04:17:51;;;;;;;33.40;16.60;;;;;;;;;;5071798;28;20907;-62
2023/07/31 04:20:16;;;;;;;42.33;14.60;;;;;;;;;;5067428;28;20493;-62
2023/07/31 04:22:42;;;;;;;35.40;15.17;;;;;;;;;;5063022;28;20062;-61
2023/07/31 04:25:07;;;;;;;33.57;14.53;;;;;;;;;;5052412;28;20508;-61
2023/07/31 04:27:32;;;;;;;35.15;12.13;;;;;;;;;;5051119;28;20041;-70
2023/07/31 04:29:57;;;;;;;29.80;12.82;;;;;;;;;;5072928;28;20020;-63
2023/07/31 04:32:22;;;;;;;35.88;14.45;;;;;;;;;;5058422;28;20079;-63
2023/07/31 04:34:48;;;;;;;33.00;13.10;;;;;;;;;;5052212;28;20024;-62
2023/07/31 04:37:13;;;;;;;35.25;14.45;;;;;;;;;;5050653;28;20045;-63
2023/07/31 04:39:39;;;;;;;34.10;13.50;;;;;;;;;;5052759;28;20021;-62
2023/07/31 04:42:04;;;;;;;24.92;11.50;;;;;;;;;;5050634;28;20802;-62
2023/07/31 04:44:30;;;;;;;29.03;10.47;;;;;;;;;;5051529;28;20031;-61
2023/07/31 04:46:55;;;;;;;29.15;11.15;;;;;;;;;;5051179;28;20033;-61
2023/07/31 04:49:20;;;;;;;36.10;11.80;;;;;;;;;;5051558;28;20082;-61
2023/07/31 04:51:45;;;;;;;26.53;9.90;;;;;;;;;;5060423;28;20072;-61
2023/07/31 04:54:12;;;;;;;31.17;12.47;;;;;;;;;;5072241;28;20026;-61
2023/07/31 04:56:37;;;;;;;24.25;12.48;;;;;;;;;;5053820;28;20044;-61
2023/07/31 04:59:02;;;;;;;34.08;13.98;;;;;;;;;;5052536;28;20424;-62
2023/07/31 05:01:27;;;;;;;29.50;10.40;;;;;;;;;;5050609;28;20025;-63
2023/07/31 05:03:53;;;;;;;25.67;11.93;;;;;;;;;;5059325;28;20503;-61
2023/07/31 05:06:18;;;;;;;21.27;8.97;;;;;;;;;;5063427;28;21020;-61
2023/07/31 05:08:43;;;;;;;29.65;11.38;;;;;;;;;;5072281;28;20017;-61
2023/07/31 05:11:08;;;;;;;20.43;10.73;;;;;;;;;;5070172;28;20115;-61
2023/07/31 05:13:33;;;;;;;28.70;9.30;;;;;;;;;;5072174;28;20039;-61
2023/07/31 05:15:58;;;;;;;27.90;12.27;;;;;;;;;;5068995;28;20073;-61
2023/07/31 05:18:23;;;;;;;28.47;10.27;;;;;;;;;;5071530;28;20608;-64
2023/07/31 05:20:49;;;;;;;31.73;12.67;;;;;;;;;;5069670;28;20024;-64
2023/07/31 05:23:14;;;;;;;21.42;9.68;;;;;;;;;;5070824;28;20020;-65
2023/07/31 05:25:39;;;;;;;24.50;9.38;;;;;;;;;;5071202;28;20020;-65
2023/07/31 05:28:04;;;;;;;23.15;8.90;;;;;;;;;;5053428;28;20515;-65
2023/07/31 05:30:30;;;;;;;25.17;10.83;;;;;;;;;;5033091;28;20021;-66
2023/07/31 05:32:55;;;;;;;24.98;12.07;;;;;;;;;;5065913;28;20033;-73
2023/07/31 05:35:21;;;;;;;45.93;16.90;;;;;;;;;;5055037;28;20541;-66
2023/07/31 05:37:46;;;;;;;30.07;13.27;;;;;;;;;;5066226;28;20043;-65
2023/07/31 05:40:11;;;;;;;24.02;11.43;;;;;;;;;;5071099;28;20024;-65
2023/07/31 05:42:38;;;;;;;29.88;11.13;;;;;;;;;;5069557;28;20041;-65
2023/07/31 05:45:03;;;;;;;27.13;12.20;;;;;;;;;;5071354;28;20063;-65
2023/07/31 05:47:28;;;;;;;28.75;9.65;;;;;;;;;;5067997;28;20456;-65
2023/07/31 05:49:54;;;;;;;20.35;10.55;;;;;;;;;;5070828;28;20017;-65
2023/07/31 05:52:19;;;;;;;30.77;12.00;;;;;;;;;;5069534;28;20479;-65
2023/07/31 05:54:45;;;;;;;26.40;10.93;;;;;;;;;;5071095;28;20098;-65
2023/07/31 05:57:11;;;;;;;32.67;9.18;;;;;;;;;;5068890;28;20032;-65
2023/07/31 05:59:36;;;;;;;21.40;10.88;;;;;;;;;;5070740;28;20028;-65
2023/07/31 06:02:02;;;;;;;22.53;12.40;;;;;;;;;;5065380;28;20539;-65
2023/07/31 06:04:27;;;;;;;33.58;9.55;;;;;;;;;;5070113;28;20878;-64
2023/07/31 06:06:52;;;;;;;28.67;12.20;;;;;;;;;;5068745;28;20093;-66
2023/07/31 06:09:17;;;;;;;17.55;10.80;;;;;;;;;;5070768;28;20408;-66
2023/07/31 06:11:42;;;;;;;22.63;9.85;;;;;;;;;;5068788;28;20097;-64
2023/07/31 06:14:07;;;;;;;24.23;9.33;;;;;;;;;;5070712;28;20068;-65
2023/07/31 06:16:32;;;;;;;17.03;9.00;;;;;;;;;;5068709;28;20040;-65
2023/07/31 06:18:58;;;;;;;18.35;6.85;;;;;;;;;;5070166;28;20021;-65
2023/07/31 06:21:23;;;;;;;23.23;8.87;;;;;;;;;;5068278;28;20037;-66
2023/07/31 06:23:48;;;;;;;29.07;8.97;;;;;;;;;;5070944;28;20091;-64
2023/07/31 06:26:13;;;;;;;17.33;8.40;;;;;;;;;;5068019;28;20435;-68
2023/07/31 06:28:38;;;;;;;16.27;8.30;;;;;;;;;;5045329;28;20499;-68
2023/07/31 06:31:04;;;;;;;17.60;8.33;;;;;;;;;;5042552;28;20106;-68
2023/07/31 06:33:29;;;;;;;18.17;8.50;;;;;;;;;;5065946;28;20418;-68
2023/07/31 06:35:54;;;;;;;19.87;7.37;;;;;;;;;;5069262;28;20996;-69
2023/07/31 06:38:21;;;;;;;17.60;8.90;;;;;;;;;;5070071;28;21089;-71
2023/07/31 06:40:47;;;;;;;20.17;10.57;;;;;;;;;;5068549;28;20100;-69
2023/07/31 06:43:12;;;;;;;27.15;9.38;;;;;;;;;;5070537;28;20547;-70
2023/07/31 06:45:37;;;;;;;23.87;7.80;;;;;;;;;;5070550;28;20082;-71
2023/07/31 06:48:03;;;;;;;15.98;7.72;;;;;;;;;;5068492;28;20122;-70
2023/07/31 06:50:29;;;;;;;16.58;7.47;;;;;;;;;;5070238;28;20047;-70
2023/07/31 06:52:54;;;;;;;22.73;8.20;;;;;;;;;;5058376;28;20113;-65
2023/07/31 06:55:20;;;;;;;13.50;8.13;;;;;;;;;;5050181;28;20546;-68
2023/07/31 06:57:46;;;;;;;20.05;8.27;;;;;;;;;;5066837;28;20123;-70
2023/07/31 07:00:11;;;;;;;21.10;8.93;;;;;;;;;;5068491;28;20531;-67
2023/07/31 07:02:36;;;;;;;22.52;7.47;;;;;;;;;;5071575;28;20042;-68
2023/07/31 07:05:02;;;;;;;19.87;8.70;;;;;;;;;;5074341;28;20017;-68
2023/07/31 07:07:27;;;;;;;15.52;7.10;;;;;;;;;;5072976;28;20032;-68
2023/07/31 07:09:52;;;;;;;17.27;9.10;;;;;;;;;;5072545;28;20105;-69
2023/07/31 07:12:18;;;;;;;15.55;9.23;;;;;;;;;;5066553;28;20037;-69
2023/07/31 07:14:43;;;;;;;14.15;7.40;;;;;;;;;;5073659;28;20027;-68
2023/07/31 07:17:08;;;;;;;13.77;8.73;;;;;;;;;;5071165;28;20032;-68
2023/07/31 07:19:33;;;;;;;17.05;7.32;;;;;;;;;;5073747;28;21038;-67
2023/07/31 07:22:01;;;;;;;13.83;7.60;;;;;;;;;;5072292;28;20032;-68
2023/07/31 07:24:26;;;;;;;16.45;8.40;;;;;;;;;;5073502;28;20016;-68
2023/07/31 07:26:52;;;;;;;14.33;7.37;;;;;;;;;;5058239;28;20033;-69
2023/07/31 07:29:17;;;;;;;9.00;6.50;;;;;;;;;;5053994;28;20109;-67
2023/07/31 07:31:42;;;;;;;10.40;6.20;;;;;;;;;;5052376;28;20044;-67
2023/07/31 07:34:07;;;;;;;9.83;6.70;;;;;;;;;;5053682;28;20435;-69
2023/07/31 07:36:33;;;;;;;14.07;6.80;;;;;;;;;;5050921;28;20473;-70
2023/07/31 07:38:58;;;;;;;9.15;5.57;;;;;;;;;;5053435;28;20096;-68
2023/07/31 07:41:23;;;;;;;8.17;4.90;;;;;;;;;;5051801;28;20079;-67
2023/07/31 07:43:48;;;;;;;10.17;4.80;;;;;;;;;;5053773;28;20100;-69
2023/07/31 07:46:13;;;;;;;8.32;4.70;;;;;;;;;;5056072;28;20032;-68
2023/07/31 07:48:38;;;;;;;7.00;3.80;;;;;;;;;;5071526;28;20103;-67
2023/07/31 07:51:04;;;;;;;11.88;4.13;;;;;;;;;;5071805;28;20077;-66
2023/07/31 07:53:29;;;;;;;5.43;4.25;;;;;;;;;;5072802;28;20440;-67
2023/07/31 07:55:54;;;;;;;13.13;5.45;;;;;;;;;;5071760;28;20025;-68
2023/07/31 07:58:19;;;;;;;8.17;4.80;;;;;;;;;;5072856;28;20028;-67
2023/07/31 08:00:48;;;;;;;7.50;4.05;;;;;;;;;;5073057;28;20455;-67
2023/07/31 08:03:13;;;;;;;4.47;3.22;;;;;;;;;;5071459;28;20028;-67
2023/07/31 08:05:38;;;;;;;7.80;4.37;;;;;;;;;;5070518;28;20016;-68
2023/07/31 08:08:04;;;;;;;5.53;2.97;;;;;;;;;;5056798;28;20372;-69
2023/07/31 08:10:29;;;;;;;4.07;3.10;;;;;;;;;;5054703;28;20083;-67
2023/07/31 08:12:54;;;;;;;5.00;3.60;;;;;;;;;;5051713;28;20529;-67
2023/07/31 08:15:19;;;;;;;3.20;2.80;;;;;;;;;;5068156;28;20502;-68
2023/07/31 08:17:44;;;;;;;5.65;2.45;;;;;;;;;;5071307;28;20032;-72
2023/07/31 08:20:10;;;;;;;4.47;2.53;;;;;;;;;;5071846;28;20024;-67
2023/07/31 08:22:35;;;;;;;3.83;2.05;;;;;;;;;;5070751;28;20029;-68
2023/07/31 08:25:00;;;;;;;3.70;2.57;;;;;;;;;;5072355;28;20013;-69
2023/07/31 08:27:25;;;;;;;3.47;2.10;;;;;;;;;;5071213;28;20491;-67
2023/07/31 08:29:51;;;;;;;3.73;3.00;;;;;;;;;;5072673;28;20077;-68
2023/07/31 08:32:16;;;;;;;4.63;2.63;;;;;;;;;;5066222;28;20098;-67
2023/07/31 08:34:42;;;;;;;2.88;2.42;;;;;;;;;;5070935;28;20481;-68
2023/07/31 08:37:07;;;;;;;4.07;2.77;;;;;;;;;;5070880;28;20036;-68
2023/07/31 08:39:32;;;;;;;3.97;2.63;;;;;;;;;;5064204;28;20457;-69
2023/07/31 08:41:58;;;;;;;4.83;3.53;;;;;;;;;;5070406;28;20507;-67
2023/07/31 08:44:24;;;;;;;2.63;2.42;;;;;;;;;;5067291;28;20025;-70
2023/07/31 08:46:49;;;;;;;4.47;2.72;;;;;;;;;;5067607;28;20098;-68
2023/07/31 08:49:16;;;;;;;4.72;2.38;;;;;;;;;;5071617;28;20020;-72
2023/07/31 08:51:42;;;;;;;2.67;2.47;;;;;;;;;;5069425;28;20376;-69
2023/07/31 08:54:07;;;;;;;3.22;3.03;;;;;;;;;;5056426;28;20081;-68
2023/07/31 08:56:32;;;;;;;3.05;2.83;;;;;;;;;;5057343;28;20044;-67
2023/07/31 08:58:59;;;;;;;2.22;2.03;;;;;;;;;;5071866;28;20012;-70
2023/07/31 09:01:24;;;;;;;2.53;2.33;;;;;;;;;;5068826;28;20757;-69
2023/07/31 09:03:51;;;;;;;3.25;2.20;;;;;;;;;;5071899;28;20021;-68
2023/07/31 09:06:18;;;;;;;3.00;2.70;;;;;;;;;;5068767;28;20032;-68
2023/07/31 09:08:43;;;;;;;3.45;3.25;;;;;;;;;;5051968;28;20044;-69
2023/07/31 09:11:08;;;;;;;3.15;2.85;;;;;;;;;;5053516;28;20033;-70
2023/07/31 09:13:34;;;;;;;5.23;3.93;;;;;;;;;;5071927;28;20643;-69
2023/07/31 09:15:59;;;;;;;2.87;2.07;;;;;;;;;;5070220;28;20077;-68
2023/07/31 09:18:24;;;;;;;2.20;2.10;;;;;;;;;;5071504;28;20550;-66
2023/07/31 09:21:02;;;;;;;4.60;3.20;;;;;;;;;;5070647;28;20044;-67
2023/07/31 09:23:27;;;;;;;;;;;;;;;;;;5054853;28;20104;-68
2023/07/31 09:25:52;;;;;;;2.63;2.42;;;;;;;;;;5064940;28;19995;-73
2023/07/31 09:28:18;;;;;;;3.33;2.50;;;;;;;;;;5051847;28;20021;-69
2023/07/31 09:30:50;;;;;;;2.87;2.30;;;;;;;;;;5051466;28;20021;-67
2023/07/31 09:33:15;;;;;;;2.47;2.28;;;;;;;;;;5068284;28;20399;-68
2023/07/31 09:35:41;;;;;;;2.50;2.25;;;;;;;;;;5071661;28;20037;-67
2023/07/31 09:38:08;;;;;;;3.83;3.22;;;;;;;;;;5069227;28;20044;-68
2023/07/31 09:40:35;;;;;;;2.47;2.28;;;;;;;;;;5071364;28;20028;-68
2023/07/31 09:43:03;;;;;;;2.92;2.70;;;;;;;;;;5067951;28;20033;-67
2023/07/31 09:45:29;;;;;;;6.05;2.95;;;;;;;;;;5069795;28;20021;-67
2023/07/31 09:47:55;;;;;;;3.50;3.03;;;;;;;;;;5068299;28;20032;-67
2023/07/31 09:50:21;;;;;;;2.72;2.53;;;;;;;;;;5070831;28;20024;-68
2023/07/31 09:52:46;;;;;;;3.55;2.50;;;;;;;;;;5064999;28;20035;-68
2023/07/31 09:55:12;;;;;;;3.42;3.22;;;;;;;;;;5050325;28;20020;-67
2023/07/31 09:57:39;;;;;;;2.65;2.13;;;;;;;;;;5048688;28;20052;-68
2023/07/31 10:00:04;;;;;;;2.58;2.40;;;;;;;;;;5050317;28;20024;-64
2023/07/31 10:02:30;;;;;;;5.63;2.25;;;;;;;;;;5063916;28;20040;-73
2023/07/31 10:04:58;;;;;;;3.22;2.00;;;;;;;;;;5065854;28;20021;-69
2023/07/31 10:07:25;;;;;;;3.47;2.15;;;;;;;;;;5041667;28;20111;-69
2023/07/31 10:09:51;;;;;;;3.38;3.15;;;;;;;;;;5037113;28;20061;-70
2023/07/31 10:12:18;;;;;;;3.20;3.00;;;;;;;;;;5060665;28;20491;-70
2023/07/31 10:14:44;;;;;;;2.72;2.53;;;;;;;;;;5070713;28;20032;-70
2023/07/31 10:17:10;;;;;;;3.05;2.75;;;;;;;;;;5069216;28;20495;-70
2023/07/31 10:19:36;;;;;;;5.40;3.08;;;;;;;;;;5071027;28;20048;-70
2023/07/31 10:22:02;;;;;;;2.55;2.35;;;;;;;;;;5068947;28;20103;-70
2023/07/31 10:24:27;;;;;;;3.92;3.63;;;;;;;;;;5070704;28;20012;-70
2023/07/31 10:26:53;;;;;;;3.55;3.25;;;;;;;;;;5069529;28;20467;-69
2023/07/31 10:29:18;;;;;;;3.25;2.95;;;;;;;;;;5069785;28;20024;-72
2023/07/31 10:31:45;;;;;;;3.72;3.35;;;;;;;;;;5069129;28;20083;-70
2023/07/31 10:34:10;;;;;;;3.88;2.78;;;;;;;;;;5069570;28;20024;-70
2023/07/31 10:36:35;;;;;;;7.93;4.13;;;;;;;;;;5062107;28;20128;-74
2023/07/31 10:39:03;;;;;;;3.87;2.83;;;;;;;;;;5050212;28;20037;-69
2023/07/31 10:41:31;;;;;;;5.53;4.27;;;;;;;;;;5067636;28;20033;-69
2023/07/31 10:43:56;;;;;;;;;;;;;;;;;;5069367;28;20682;-70
2023/07/31 10:46:22;;;;;;;5.45;4.20;;;;;;;;;;5060525;28;20351;-70
2023/07/31 10:48:56;;;;;;;5.70;5.20;;;;;;;;;;5069118;28;20024;-69
2023/07/31 10:51:22;;;;;;;6.55;4.20;;;;;;;;;;5031598;28;20044;-69
2023/07/31 10:53:47;;;;;;;6.63;4.55;;;;;;;;;;5049297;28;20013;-70
2023/07/31 10:56:15;;;;;;;5.53;5.03;;;;;;;;;;5058185;28;20110;-70
2023/07/31 10:58:43;;;;;;;5.13;4.68;;;;;;;;;;5070055;28;20027;-69
2023/07/31 11:01:08;;;;;;;7.50;6.00;;;;;;;;;;5068452;28;20500;-69
2023/07/31 11:03:47;;;;;;;8.75;5.88;;;;;;;;;;5053732;28;20166;-69
2023/07/31 11:06:13;;;;;;;8.18;6.15;;;;;;;;;;5028909;28;20439;-69
2023/07/31 11:08:45;;;;;;;8.60;6.00;;;;;;;;;;5037898;28;20020;-69
2023/07/31 11:11:11;;;;;;;7.15;6.45;;;;;;;;;;5055329;28;20068;-69
2023/07/31 11:13:40;;;;;;;8.10;6.53;;;;;;;;;;5064501;28;20024;-68
2023/07/31 11:16:06;;;;;;;11.07;7.40;;;;;;;;;;5062603;28;20152;-69
2023/07/31 11:18:31;;;;;;;11.48;7.82;;;;;;;;;;5069663;28;20096;-68
2023/07/31 11:20:56;;;;;;;8.65;6.85;;;;;;;;;;5067782;28;20395;-69
2023/07/31 11:23:22;;;;;;;13.07;7.73;;;;;;;;;;5069228;28;20089;-69
2023/07/31 11:25:47;;;;;;;9.25;8.00;;;;;;;;;;5068605;28;20386;-68
2023/07/31 11:28:13;;;;;;;10.27;7.20;;;;;;;;;;5069726;28;20036;-69
2023/07/31 11:30:40;;;;;;;8.65;6.95;;;;;;;;;;5069507;28;20567;-68
2023/07/31 11:33:06;;;;;;;8.68;7.78;;;;;;;;;;5053547;28;20033;-68
2023/07/31 11:35:44;;;;;;;11.38;8.00;;;;;;;;;;5069657;28;20060;-68
2023/07/31 11:38:10;;;;;;;11.13;7.60;;;;;;;;;;5067761;28;20586;-68
2023/07/31 11:40:44;;;;;;;15.38;8.68;;;;;;;;;;5070124;28;20104;-69
2023/07/31 11:43:11;;;;;;;11.95;6.50;;;;;;;;;;5067817;28;20032;-68
2023/07/31 11:45:36;;;;;;;15.88;9.80;;;;;;;;;;5069677;28;20074;-68
2023/07/31 11:48:01;;;;;;;15.35;9.07;;;;;;;;;;5063521;28;20040;-68
2023/07/31 11:50:27;;;;;;;8.13;7.30;;;;;;;;;;5073150;28;20391;-69
2023/07/31 11:52:54;;;;;;;9.48;8.18;;;;;;;;;;5071394;28;20056;-68
2023/07/31 11:55:21;;;;;;;12.18;7.72;;;;;;;;;;5056374;28;20021;-68
2023/07/31 11:57:46;;;;;;;10.65;7.35;;;;;;;;;;5031999;28;20038;-68
2023/07/31 12:00:13;;;;;;;14.77;7.50;;;;;;;;;;5052474;28;20379;-70
2023/07/31 12:02:39;;;;;;;9.25;7.65;;;;;;;;;;5052977;28;20033;-68
2023/07/31 12:05:05;;;;;;;9.57;8.32;;;;;;;;;;5068255;28;20062;-68
2023/07/31 12:07:42;;;;;;;8.70;7.57;;;;;;;;;;5052875;28;20072;-68
2023/07/31 12:10:08;;;;;;;11.38;7.10;;;;;;;;;;5058271;28;20017;-68
2023/07/31 12:12:33;;;;;;;10.87;7.80;;;;;;;;;;5070345;28;20491;-68
2023/07/31 12:14:58;;;;;;;12.63;7.50;;;;;;;;;;5062300;28;20976;-68
2023/07/31 12:17:25;;;;;;;13.83;7.80;;;;;;;;;;5064107;28;20083;-68
2023/07/31 12:19:50;;;;;;;10.40;8.20;;;;;;;;;;5052757;28;20028;-68
2023/07/31 12:22:16;;;;;;;10.60;7.90;;;;;;;;;;5067607;28;20040;-68
2023/07/31 12:24:44;;;;;;;10.45;8.35;;;;;;;;;;5073190;28;20431;-68
2023/07/31 12:27:10;;;;;;;11.35;7.95;;;;;;;;;;5071410;28;20040;-68
2023/07/31 12:29:36;;;;;;;11.05;7.43;;;;;;;;;;5072601;28;20395;-68
2023/07/31 12:32:01;;;;;;;8.60;7.32;;;;;;;;;;5070055;28;20033;-68
2023/07/31 12:34:26;;;;;;;8.20;7.03;;;;;;;;;;5072799;28;20032;-69
2023/07/31 12:36:52;;;;;;;11.93;8.47;;;;;;;;;;5070867;28;20045;-69
2023/07/31 12:39:17;;;;;;;9.15;7.05;;;;;;;;;;5072135;28;20529;-68
2023/07/31 12:41:42;;;;;;;8.52;7.55;;;;;;;;;;5069795;28;20041;-68
2023/07/31 12:44:08;;;;;;;8.23;7.40;;;;;;;;;;5072028;28;20024;-68
2023/07/31 12:46:33;;;;;;;10.73;7.17;;;;;;;;;;5071172;28;20040;-68
2023/07/31 12:48:58;;;;;;;10.23;7.15;;;;;;;;;;5072313;28;20465;-68
2023/07/31 12:51:23;;;;;;;11.80;9.75;;;;;;;;;;5070329;28;20045;-68
2023/07/31 12:53:48;;;;;;;9.57;7.13;;;;;;;;;;5071947;28;20039;-68
2023/07/31 12:56:14;;;;;;;7.77;6.43;;;;;;;;;;5069923;28;20089;-68
2023/07/31 12:58:39;;;;;;;7.43;6.80;;;;;;;;;;5071730;28;20020;-68
2023/07/31 13:01:05;;;;;;;11.33;6.63;;;;;;;;;;5070104;28;20021;-68
2023/07/31 13:03:30;;;;;;;7.25;6.50;;;;;;;;;;5071698;28;20023;-68
2023/07/31 13:05:56;;;;;;;7.07;6.17;;;;;;;;;;5068526;28;20017;-68
2023/07/31 13:08:21;;;;;;;8.07;6.10;;;;;;;;;;5051753;28;20028;-67
2023/07/31 13:10:46;;;;;;;8.98;5.93;;;;;;;;;;5052410;28;20071;-68
2023/07/31 13:13:11;;;;;;;6.10;5.53;;;;;;;;;;5049982;28;20037;-68
2023/07/31 13:15:36;;;;;;;9.37;6.53;;;;;;;;;;5067167;28;20434;-68
2023/07/31 13:18:01;;;;;;;19.90;7.50;;;;;;;;;;5070552;28;20059;-68
2023/07/31 13:20:27;;;;;;;7.23;5.97;;;;;;;;;;5071381;28;20013;-68
2023/07/31 13:22:52;;;;;;;10.83;6.73;;;;;;;;;;5068014;28;20125;-67
2023/07/31 13:25:17;;;;;;;9.07;6.28;;;;;;;;;;5071844;28;20463;-67
2023/07/31 13:27:42;;;;;;;16.40;6.57;;;;;;;;;;5070072;28;20101;-67
2023/07/31 13:30:07;;;;;;;7.43;6.03;;;;;;;;;;5071721;28;20430;-68
2023/07/31 13:32:33;;;;;;;8.93;4.80;;;;;;;;;;5070301;28;20859;-68
2023/07/31 13:34:58;;;;;;;13.83;7.57;;;;;;;;;;5070948;28;20027;-68
2023/07/31 13:37:23;;;;;;;11.07;5.00;;;;;;;;;;5069891;28;21209;-68
2023/07/31 13:39:48;;;;;;;6.23;5.63;;;;;;;;;;5071693;28;20498;-68
2023/07/31 13:42:13;;;;;;;9.07;5.63;;;;;;;;;;5068963;28;20035;-68
2023/07/31 13:44:39;;;;;;;5.87;5.27;;;;;;;;;;5071204;28;20593;-68
2023/07/31 13:47:04;;;;;;;8.70;6.05;;;;;;;;;;5069751;28;20036;-67
2023/07/31 13:49:30;;;;;;;8.87;5.97;;;;;;;;;;5071172;28;20467;-68
2023/07/31 13:51:55;;;;;;;11.05;6.78;;;;;;;;;;5069849;28;20802;-69
2023/07/31 13:54:21;;;;;;;10.40;6.78;;;;;;;;;;5071200;28;20029;-68
2023/07/31 13:56:47;;;;;;;8.05;6.15;;;;;;;;;;5068969;28;20040;-73
2023/07/31 13:59:12;;;;;;;8.67;4.67;;;;;;;;;;5066128;28;20019;-68
2023/07/31 14:01:37;;;;;;;7.67;5.60;;;;;;;;;;5067702;28;20036;-67
2023/07/31 14:04:03;;;;;;;4.90;4.50;;;;;;;;;;5070864;28;20537;-67
2023/07/31 14:06:28;;;;;;;7.80;6.53;;;;;;;;;;5069408;28;20049;-67
2023/07/31 14:08:53;;;;;;;10.30;6.00;;;;;;;;;;5069818;28;20012;-68
2023/07/31 14:11:18;;;;;;;5.93;4.85;;;;;;;;;;5068770;28;20431;-68
2023/07/31 14:13:43;;;;;;;6.53;5.23;;;;;;;;;;5071022;28;20051;-68
2023/07/31 14:16:09;;;;;;;8.02;5.28;;;;;;;;;;5068807;28;20669;-66
2023/07/31 14:18:34;;;;;;;7.05;4.20;;;;;;;;;;5071120;28;20020;-67
2023/07/31 14:20:59;;;;;;;6.37;4.40;;;;;;;;;;5069185;28;20012;-68
2023/07/31 14:23:24;;;;;;;5.43;4.83;;;;;;;;;;5070395;28;20490;-67